sensor_id;sensor_type;location;lat;lon;timestamp;temperature;humidity
18779;DHT22;9518;51.720;14.384;2022-09-03T00:02:23;10.80;1.00
18779;DHT22;9518;51.720;14.384;2022-09-03T00:04:56;10.70;1.00
18779;DHT22;9518;51.720;14.384;2022-09-03T00:07:29;10.70;1.00
18779;DHT22;9518;51.720;14.384;2022-09-03T00:10:03;10.70;1.00
18779;DHT22;9518;51.720;14.384;2022-09-03T00:12:32;10.60;1.00
18779;DHT22;9518;51.720;14.384;2022-09-03T00:15:04;10.50;1.00
18779;DHT22;9518;51.720;14.384;2022-09-03T00:17:35;10.50;1.00
18779;DHT22;9518;51.720;14.384;2022-09-03T00:20:07;10.50;1.00
18779;DHT22;9518;51.720;14.384;2022-09-03T00:22:38;10.30;99.90
18779;DHT22;9518;51.720;14.384;2022-09-03T00:25:09;10.30;99.90
18779;DHT22;9518;51.720;14.384;2022-09-03T00:27:39;10.20;1.00
18779;DHT22;9518;51.720;14.384;2022-09-03T00:30:09;10.20;1.00
18779;DHT22;9518;51.720;14.384;2022-09-03T00:32:41;10.10;1.00
18779;DHT22;9518;51.720;14.384;2022-09-03T00:35:15;10.00;1.00
18779;DHT22;9518;51.720;14.384;2022-09-03T00:37:45;10.00;99.90
18779;DHT22;9518;51.720;14.384;2022-09-03T00:40:22;9.90;99.90
18779;DHT22;9518;51.720;14.384;2022-09-03T00:42:57;9.90;1.00
18779;DHT22;9518;51.720;14.384;2022-09-03T00:45:31;9.80;1.00
18779;DHT22;9518;51.720;14.384;2022-09-03T00:48:08;9.80;1.00
18779;DHT22;9518;51.720;14.384;2022-09-03T00:50:45;9.80;78.80
18779;DHT22;9518;51.720;14.384;2022-09-03T00:53:27;9.70;99.90
18779;DHT22;9518;51.720;14.384;2022-09-03T00:56:01;9.60;1.00
18779;DHT22;9518;51.720;14.384;2022-09-03T00:58:43;9.50;99.90
18779;DHT22;9518;51.720;14.384;2022-09-03T01:01:20;9.50;1.00
18779;DHT22;9518;51.720;14.384;2022-09-03T01:03:58;9.50;1.00
18779;DHT22;9518;51.720;14.384;2022-09-03T01:06:37;9.40;9.10
18779;DHT22;9518;51.720;14.384;2022-09-03T01:09:16;9.30;1.00
18779;DHT22;9518;51.720;14.384;2022-09-03T01:11:55;9.30;1.00
18779;DHT22;9518;51.720;14.384;2022-09-03T01:14:38;9.20;99.90
18779;DHT22;9518;51.720;14.384;2022-09-03T01:17:17;9.10;1.00
18779;DHT22;9518;51.720;14.384;2022-09-03T01:20:00;9.10;1.00
18779;DHT22;9518;51.720;14.384;2022-09-03T01:22:53;9.10;99.90
18779;DHT22;9518;51.720;14.384;2022-09-03T01:25:31;9.00;1.00
18779;DHT22;9518;51.720;14.384;2022-09-03T01:28:16;9.00;1.00
18779;DHT22;9518;51.720;14.384;2022-09-03T01:30:50;8.90;1.00
18779;DHT22;9518;51.720;14.384;2022-09-03T01:33:26;8.90;1.00
18779;DHT22;9518;51.720;14.384;2022-09-03T01:36:01;8.80;1.00
18779;DHT22;9518;51.720;14.384;2022-09-03T01:38:36;8.80;99.90
18779;DHT22;9518;51.720;14.384;2022-09-03T01:41:13;8.70;1.60
18779;DHT22;9518;51.720;14.384;2022-09-03T01:44:08;8.60;99.90
18779;DHT22;9518;51.720;14.384;2022-09-03T01:46:51;8.70;90.50
18779;DHT22;9518;51.720;14.384;2022-09-03T01:49:29;8.60;99.90
18779;DHT22;9518;51.720;14.384;2022-09-03T01:52:06;8.60;1.00
18779;DHT22;9518;51.720;14.384;2022-09-03T01:54:48;8.60;99.90
18779;DHT22;9518;51.720;14.384;2022-09-03T02:00:13;8.60;1.00
18779;DHT22;9518;51.720;14.384;2022-09-03T02:02:43;8.60;99.90
18779;DHT22;9518;51.720;14.384;2022-09-03T02:05:14;8.50;99.90
18779;DHT22;9518;51.720;14.384;2022-09-03T02:07:44;8.40;1.00
18779;DHT22;9518;51.720;14.384;2022-09-03T02:10:13;8.30;1.00
18779;DHT22;9518;51.720;14.384;2022-09-03T02:12:43;8.30;1.00
18779;DHT22;9518;51.720;14.384;2022-09-03T02:15:13;8.30;1.00
18779;DHT22;9518;51.720;14.384;2022-09-03T02:17:43;8.30;1.00
18779;DHT22;9518;51.720;14.384;2022-09-03T02:20:15;8.20;1.00
18779;DHT22;9518;51.720;14.384;2022-09-03T02:22:44;8.20;1.00
18779;DHT22;9518;51.720;14.384;2022-09-03T02:25:11;8.30;1.00
18779;DHT22;9518;51.720;14.384;2022-09-03T02:27:39;8.30;99.90
18779;DHT22;9518;51.720;14.384;2022-09-03T02:30:07;8.40;1.00
18779;DHT22;9518;51.720;14.384;2022-09-03T02:32:35;8.30;1.00
18779;DHT22;9518;51.720;14.384;2022-09-03T02:35:03;8.30;1.00
18779;DHT22;9518;51.720;14.384;2022-09-03T02:37:31;8.40;1.00
18779;DHT22;9518;51.720;14.384;2022-09-03T02:39:58;8.40;99.90
18779;DHT22;9518;51.720;14.384;2022-09-03T02:42:25;8.40;1.00
18779;DHT22;9518;51.720;14.384;2022-09-03T02:44:56;8.40;1.00
18779;DHT22;9518;51.720;14.384;2022-09-03T02:47:29;8.40;1.00
18779;DHT22;9518;51.720;14.384;2022-09-03T02:49:57;8.50;1.00
18779;DHT22;9518;51.720;14.384;2022-09-03T02:52:25;8.50;1.00
18779;DHT22;9518;51.720;14.384;2022-09-03T02:54:52;8.50;1.00
18779;DHT22;9518;51.720;14.384;2022-09-03T02:57:19;8.50;1.00
18779;DHT22;9518;51.720;14.384;2022-09-03T02:59:45;8.50;1.00
18779;DHT22;9518;51.720;14.384;2022-09-03T03:02:12;8.40;1.00
18779;DHT22;9518;51.720;14.384;2022-09-03T03:04:39;8.40;1.00
18779;DHT22;9518;51.720;14.384;2022-09-03T03:07:06;8.40;1.00
18779;DHT22;9518;51.720;14.384;2022-09-03T03:09:35;8.30;1.00
18779;DHT22;9518;51.720;14.384;2022-09-03T03:12:02;8.20;1.00
18779;DHT22;9518;51.720;14.384;2022-09-03T03:14:29;8.10;1.00
18779;DHT22;9518;51.720;14.384;2022-09-03T03:16:56;8.10;1.00
18779;DHT22;9518;51.720;14.384;2022-09-03T03:19:23;8.10;1.00
18779;DHT22;9518;51.720;14.384;2022-09-03T03:21:50;8.10;1.00
18779;DHT22;9518;51.720;14.384;2022-09-03T03:24:17;8.10;1.00
18779;DHT22;9518;51.720;14.384;2022-09-03T03:26:47;8.10;1.00
18779;DHT22;9518;51.720;14.384;2022-09-03T03:29:15;8.20;99.90
18779;DHT22;9518;51.720;14.384;2022-09-03T03:31:43;8.20;82.40
18779;DHT22;9518;51.720;14.384;2022-09-03T03:34:10;8.20;99.90
18779;DHT22;9518;51.720;14.384;2022-09-03T03:36:37;8.20;99.90
18779;DHT22;9518;51.720;14.384;2022-09-03T03:39:04;8.30;1.00
18779;DHT22;9518;51.720;14.384;2022-09-03T03:41:33;8.30;1.00
18779;DHT22;9518;51.720;14.384;2022-09-03T03:44:03;8.40;1.00
18779;DHT22;9518;51.720;14.384;2022-09-03T03:46:32;8.40;1.00
18779;DHT22;9518;51.720;14.384;2022-09-03T03:48:59;8.40;1.00
18779;DHT22;9518;51.720;14.384;2022-09-03T03:51:27;8.40;1.00
18779;DHT22;9518;51.720;14.384;2022-09-03T03:53:55;8.40;1.00
18779;DHT22;9518;51.720;14.384;2022-09-03T03:56:24;8.40;1.00
18779;DHT22;9518;51.720;14.384;2022-09-03T03:58:52;8.40;1.00
18779;DHT22;9518;51.720;14.384;2022-09-03T04:01:22;8.40;1.00
18779;DHT22;9518;51.720;14.384;2022-09-03T04:03:49;8.50;1.00
18779;DHT22;9518;51.720;14.384;2022-09-03T04:06:19;8.40;1.00
18779;DHT22;9518;51.720;14.384;2022-09-03T04:08:47;8.50;1.00
18779;DHT22;9518;51.720;14.384;2022-09-03T04:11:17;8.50;1.00
18779;DHT22;9518;51.720;14.384;2022-09-03T04:13:46;8.60;1.00
18779;DHT22;9518;51.720;14.384;2022-09-03T04:16:14;8.60;1.00
18779;DHT22;9518;51.720;14.384;2022-09-03T04:18:44;8.60;1.00
18779;DHT22;9518;51.720;14.384;2022-09-03T04:21:14;8.60;1.00
18779;DHT22;9518;51.720;14.384;2022-09-03T04:23:42;8.70;1.00
18779;DHT22;9518;51.720;14.384;2022-09-03T04:26:12;8.80;1.00
18779;DHT22;9518;51.720;14.384;2022-09-03T04:28:39;8.90;1.00
18779;DHT22;9518;51.720;14.384;2022-09-03T04:31:08;9.00;1.00
18779;DHT22;9518;51.720;14.384;2022-09-03T04:33:36;9.10;1.00
18779;DHT22;9518;51.720;14.384;2022-09-03T04:36:07;9.20;99.90
18779;DHT22;9518;51.720;14.384;2022-09-03T04:38:35;9.30;1.00
18779;DHT22;9518;51.720;14.384;2022-09-03T04:41:02;9.40;1.00
18779;DHT22;9518;51.720;14.384;2022-09-03T04:43:29;9.50;33.30
18779;DHT22;9518;51.720;14.384;2022-09-03T04:45:57;9.50;1.00
18779;DHT22;9518;51.720;14.384;2022-09-03T04:48:25;9.60;1.00
18779;DHT22;9518;51.720;14.384;2022-09-03T04:50:52;9.70;1.00
18779;DHT22;9518;51.720;14.384;2022-09-03T04:53:21;9.70;99.90
18779;DHT22;9518;51.720;14.384;2022-09-03T04:55:48;9.70;99.90
18779;DHT22;9518;51.720;14.384;2022-09-03T04:58:15;9.80;99.90
18779;DHT22;9518;51.720;14.384;2022-09-03T05:00:42;9.90;1.00
18779;DHT22;9518;51.720;14.384;2022-09-03T05:03:09;10.00;99.90
18779;DHT22;9518;51.720;14.384;2022-09-03T05:05:37;10.10;1.00
18779;DHT22;9518;51.720;14.384;2022-09-03T05:08:04;10.30;1.00
18779;DHT22;9518;51.720;14.384;2022-09-03T05:10:33;10.40;1.00
18779;DHT22;9518;51.720;14.384;2022-09-03T05:13:01;10.60;1.00
18779;DHT22;9518;51.720;14.384;2022-09-03T05:15:30;10.80;1.00
18779;DHT22;9518;51.720;14.384;2022-09-03T05:17:58;10.90;1.00
18779;DHT22;9518;51.720;14.384;2022-09-03T05:20:26;11.00;99.90
18779;DHT22;9518;51.720;14.384;2022-09-03T05:22:54;11.10;1.00
18779;DHT22;9518;51.720;14.384;2022-09-03T05:25:21;11.30;1.00
18779;DHT22;9518;51.720;14.384;2022-09-03T05:27:50;11.40;1.00
18779;DHT22;9518;51.720;14.384;2022-09-03T05:30:18;11.50;1.00
18779;DHT22;9518;51.720;14.384;2022-09-03T05:32:47;11.60;99.90
18779;DHT22;9518;51.720;14.384;2022-09-03T05:35:14;11.70;99.90
18779;DHT22;9518;51.720;14.384;2022-09-03T05:37:41;11.80;99.90
18779;DHT22;9518;51.720;14.384;2022-09-03T05:40:08;11.90;99.90
18779;DHT22;9518;51.720;14.384;2022-09-03T05:42:36;12.10;1.00
18779;DHT22;9518;51.720;14.384;2022-09-03T05:45:07;12.30;1.00
18779;DHT22;9518;51.720;14.384;2022-09-03T05:47:36;12.50;1.00
18779;DHT22;9518;51.720;14.384;2022-09-03T05:50:05;12.70;1.00
18779;DHT22;9518;51.720;14.384;2022-09-03T05:52:33;12.80;1.00
18779;DHT22;9518;51.720;14.384;2022-09-03T05:55:00;12.90;1.00
18779;DHT22;9518;51.720;14.384;2022-09-03T05:57:28;13.00;99.90
18779;DHT22;9518;51.720;14.384;2022-09-03T05:59:55;13.10;99.90
18779;DHT22;9518;51.720;14.384;2022-09-03T06:02:24;13.20;99.90
18779;DHT22;9518;51.720;14.384;2022-09-03T06:04:51;13.20;99.90
18779;DHT22;9518;51.720;14.384;2022-09-03T06:07:18;13.30;99.90
18779;DHT22;9518;51.720;14.384;2022-09-03T06:09:45;13.50;99.90
18779;DHT22;9518;51.720;14.384;2022-09-03T06:12:12;13.60;99.90
18779;DHT22;9518;51.720;14.384;2022-09-03T06:14:39;13.70;98.50
18779;DHT22;9518;51.720;14.384;2022-09-03T06:17:06;13.80;99.90
18779;DHT22;9518;51.720;14.384;2022-09-03T06:19:37;13.90;61.60
18779;DHT22;9518;51.720;14.384;2022-09-03T06:22:04;14.10;7.30
18779;DHT22;9518;51.720;14.384;2022-09-03T06:24:31;14.10;1.00
18779;DHT22;9518;51.720;14.384;2022-09-03T06:26:58;14.20;1.00
18779;DHT22;9518;51.720;14.384;2022-09-03T06:29:26;14.40;1.00
18779;DHT22;9518;51.720;14.384;2022-09-03T06:31:53;14.40;1.00
18779;DHT22;9518;51.720;14.384;2022-09-03T06:34:20;14.60;1.00
18779;DHT22;9518;51.720;14.384;2022-09-03T06:36:51;14.70;1.00
18779;DHT22;9518;51.720;14.384;2022-09-03T06:39:18;14.80;1.00
18779;DHT22;9518;51.720;14.384;2022-09-03T06:41:45;14.90;1.00
18779;DHT22;9518;51.720;14.384;2022-09-03T06:44:16;14.90;1.00
18779;DHT22;9518;51.720;14.384;2022-09-03T06:46:43;15.00;1.00
18779;DHT22;9518;51.720;14.384;2022-09-03T06:49:10;15.10;1.00
18779;DHT22;9518;51.720;14.384;2022-09-03T06:51:38;15.20;1.00
18779;DHT22;9518;51.720;14.384;2022-09-03T06:54:08;15.30;1.00
18779;DHT22;9518;51.720;14.384;2022-09-03T06:56:37;15.30;1.00
18779;DHT22;9518;51.720;14.384;2022-09-03T06:59:05;15.50;1.00
18779;DHT22;9518;51.720;14.384;2022-09-03T07:01:33;15.60;1.00
18779;DHT22;9518;51.720;14.384;2022-09-03T07:04:03;15.60;1.00
18779;DHT22;9518;51.720;14.384;2022-09-03T07:06:32;15.70;1.00
18779;DHT22;9518;51.720;14.384;2022-09-03T07:09:01;15.90;1.00
18779;DHT22;9518;51.720;14.384;2022-09-03T07:11:30;16.10;1.00
18779;DHT22;9518;51.720;14.384;2022-09-03T07:13:58;16.20;1.00
18779;DHT22;9518;51.720;14.384;2022-09-03T07:16:27;16.30;1.00
18779;DHT22;9518;51.720;14.384;2022-09-03T07:18:55;16.30;1.00
18779;DHT22;9518;51.720;14.384;2022-09-03T07:21:23;16.40;1.00
18779;DHT22;9518;51.720;14.384;2022-09-03T07:23:52;16.50;1.00
18779;DHT22;9518;51.720;14.384;2022-09-03T07:26:20;16.70;1.00
18779;DHT22;9518;51.720;14.384;2022-09-03T07:28:50;16.90;1.00
18779;DHT22;9518;51.720;14.384;2022-09-03T07:31:20;17.00;1.00
18779;DHT22;9518;51.720;14.384;2022-09-03T07:33:52;17.10;1.00
18779;DHT22;9518;51.720;14.384;2022-09-03T07:36:21;17.30;1.00
18779;DHT22;9518;51.720;14.384;2022-09-03T07:38:48;17.40;1.00
18779;DHT22;9518;51.720;14.384;2022-09-03T07:41:15;17.50;1.00
18779;DHT22;9518;51.720;14.384;2022-09-03T07:43:43;17.50;1.00
18779;DHT22;9518;51.720;14.384;2022-09-03T07:46:13;17.70;1.00
18779;DHT22;9518;51.720;14.384;2022-09-03T07:48:46;17.90;1.00
18779;DHT22;9518;51.720;14.384;2022-09-03T07:51:15;18.10;1.00
18779;DHT22;9518;51.720;14.384;2022-09-03T07:53:43;18.30;1.00
18779;DHT22;9518;51.720;14.384;2022-09-03T07:56:10;18.50;1.00
18779;DHT22;9518;51.720;14.384;2022-09-03T07:58:38;18.60;1.00
18779;DHT22;9518;51.720;14.384;2022-09-03T08:01:07;18.60;1.00
18779;DHT22;9518;51.720;14.384;2022-09-03T08:03:35;18.70;1.00
18779;DHT22;9518;51.720;14.384;2022-09-03T08:06:04;19.10;1.00
18779;DHT22;9518;51.720;14.384;2022-09-03T08:08:31;19.40;1.00
18779;DHT22;9518;51.720;14.384;2022-09-03T08:11:08;19.60;1.00
18779;DHT22;9518;51.720;14.384;2022-09-03T08:13:36;19.60;1.00
18779;DHT22;9518;51.720;14.384;2022-09-03T08:16:05;19.60;1.00
18779;DHT22;9518;51.720;14.384;2022-09-03T08:18:35;19.70;1.00
18779;DHT22;9518;51.720;14.384;2022-09-03T08:21:04;19.80;1.00
18779;DHT22;9518;51.720;14.384;2022-09-03T08:23:35;20.00;1.00
18779;DHT22;9518;51.720;14.384;2022-09-03T08:26:02;20.00;1.00
18779;DHT22;9518;51.720;14.384;2022-09-03T08:28:29;20.00;1.00
18779;DHT22;9518;51.720;14.384;2022-09-03T08:31:03;20.20;1.00
18779;DHT22;9518;51.720;14.384;2022-09-03T08:33:30;20.20;1.00
18779;DHT22;9518;51.720;14.384;2022-09-03T08:36:07;20.30;1.00
18779;DHT22;9518;51.720;14.384;2022-09-03T08:38:35;20.50;1.00
18779;DHT22;9518;51.720;14.384;2022-09-03T08:41:07;20.50;1.00
18779;DHT22;9518;51.720;14.384;2022-09-03T08:46:43;20.40;1.00
18779;DHT22;9518;51.720;14.384;2022-09-03T08:49:14;20.20;1.00
18779;DHT22;9518;51.720;14.384;2022-09-03T08:51:46;20.30;1.00
18779;DHT22;9518;51.720;14.384;2022-09-03T08:54:15;20.40;1.00
18779;DHT22;9518;51.720;14.384;2022-09-03T08:56:43;20.50;1.00
18779;DHT22;9518;51.720;14.384;2022-09-03T08:59:11;20.60;1.00
18779;DHT22;9518;51.720;14.384;2022-09-03T09:01:45;20.80;1.00
18779;DHT22;9518;51.720;14.384;2022-09-03T09:04:26;21.00;1.00
18779;DHT22;9518;51.720;14.384;2022-09-03T09:07:02;20.80;1.00
18779;DHT22;9518;51.720;14.384;2022-09-03T09:09:36;21.00;1.00
18779;DHT22;9518;51.720;14.384;2022-09-03T09:12:13;21.20;1.00
18779;DHT22;9518;51.720;14.384;2022-09-03T09:14:46;21.50;1.00
18779;DHT22;9518;51.720;14.384;2022-09-03T09:17:26;21.80;1.00
18779;DHT22;9518;51.720;14.384;2022-09-03T09:20:03;21.80;1.00
18779;DHT22;9518;51.720;14.384;2022-09-03T09:22:37;22.00;1.00
18779;DHT22;9518;51.720;14.384;2022-09-03T09:25:09;22.20;1.00
18779;DHT22;9518;51.720;14.384;2022-09-03T09:27:44;22.30;1.00
18779;DHT22;9518;51.720;14.384;2022-09-03T09:30:17;22.20;1.00
18779;DHT22;9518;51.720;14.384;2022-09-03T09:32:44;22.30;1.00
18779;DHT22;9518;51.720;14.384;2022-09-03T09:35:12;22.40;1.00
18779;DHT22;9518;51.720;14.384;2022-09-03T09:37:48;22.40;1.00
18779;DHT22;9518;51.720;14.384;2022-09-03T09:40:28;22.80;1.00
18779;DHT22;9518;51.720;14.384;2022-09-03T09:43:05;22.90;1.00
18779;DHT22;9518;51.720;14.384;2022-09-03T09:45:32;23.20;1.00
18779;DHT22;9518;51.720;14.384;2022-09-03T09:48:00;23.00;99.90
18779;DHT22;9518;51.720;14.384;2022-09-03T09:50:28;22.90;99.90
18779;DHT22;9518;51.720;14.384;2022-09-03T09:53:01;22.70;99.90
18779;DHT22;9518;51.720;14.384;2022-09-03T09:55:31;22.70;99.90
18779;DHT22;9518;51.720;14.384;2022-09-03T09:58:06;22.20;99.90
18779;DHT22;9518;51.720;14.384;2022-09-03T10:00:35;22.00;99.90
18779;DHT22;9518;51.720;14.384;2022-09-03T10:03:09;22.50;99.90
18779;DHT22;9518;51.720;14.384;2022-09-03T10:05:38;22.60;99.90
18779;DHT22;9518;51.720;14.384;2022-09-03T10:08:18;22.80;99.90
18779;DHT22;9518;51.720;14.384;2022-09-03T10:10:48;23.00;99.90
18779;DHT22;9518;51.720;14.384;2022-09-03T10:13:18;23.00;99.90
18779;DHT22;9518;51.720;14.384;2022-09-03T10:15:49;22.90;99.90
18779;DHT22;9518;51.720;14.384;2022-09-03T10:18:23;23.20;99.90
18779;DHT22;9518;51.720;14.384;2022-09-03T10:20:59;23.10;99.90
18779;DHT22;9518;51.720;14.384;2022-09-03T10:23:32;23.00;99.90
18779;DHT22;9518;51.720;14.384;2022-09-03T10:26:02;23.40;99.90
18779;DHT22;9518;51.720;14.384;2022-09-03T10:28:33;23.10;99.90
18779;DHT22;9518;51.720;14.384;2022-09-03T10:31:26;22.80;99.90
18779;DHT22;9518;51.720;14.384;2022-09-03T10:34:02;22.50;99.90
18779;DHT22;9518;51.720;14.384;2022-09-03T10:36:35;22.80;99.90
18779;DHT22;9518;51.720;14.384;2022-09-03T10:39:12;23.00;99.90
18779;DHT22;9518;51.720;14.384;2022-09-03T10:41:49;23.10;99.90
18779;DHT22;9518;51.720;14.384;2022-09-03T10:44:30;23.20;99.90
18779;DHT22;9518;51.720;14.384;2022-09-03T10:47:11;23.40;99.90
18779;DHT22;9518;51.720;14.384;2022-09-03T10:49:49;24.20;99.90
18779;DHT22;9518;51.720;14.384;2022-09-03T10:52:26;23.50;99.90
18779;DHT22;9518;51.720;14.384;2022-09-03T10:55:13;23.10;99.90
18779;DHT22;9518;51.720;14.384;2022-09-03T10:57:52;23.60;99.90
18779;DHT22;9518;51.720;14.384;2022-09-03T11:00:22;24.30;99.90
18779;DHT22;9518;51.720;14.384;2022-09-03T11:03:14;24.40;99.90
18779;DHT22;9518;51.720;14.384;2022-09-03T11:05:54;24.70;99.90
18779;DHT22;9518;51.720;14.384;2022-09-03T11:08:25;24.40;99.90
18779;DHT22;9518;51.720;14.384;2022-09-03T11:11:10;24.00;99.90
18779;DHT22;9518;51.720;14.384;2022-09-03T11:13:40;23.60;99.90
18779;DHT22;9518;51.720;14.384;2022-09-03T11:16:13;23.70;99.90
18779;DHT22;9518;51.720;14.384;2022-09-03T11:18:45;23.60;99.90
18779;DHT22;9518;51.720;14.384;2022-09-03T11:21:17;23.80;99.90
18779;DHT22;9518;51.720;14.384;2022-09-03T11:23:48;23.80;99.90
18779;DHT22;9518;51.720;14.384;2022-09-03T11:26:18;24.20;99.90
18779;DHT22;9518;51.720;14.384;2022-09-03T11:28:53;24.30;99.90
18779;DHT22;9518;51.720;14.384;2022-09-03T11:31:30;24.60;99.90
18779;DHT22;9518;51.720;14.384;2022-09-03T11:34:07;24.50;99.90
18779;DHT22;9518;51.720;14.384;2022-09-03T11:36:36;24.80;99.90
18779;DHT22;9518;51.720;14.384;2022-09-03T11:39:13;25.30;99.90
18779;DHT22;9518;51.720;14.384;2022-09-03T11:41:56;25.40;99.90
18779;DHT22;9518;51.720;14.384;2022-09-03T11:44:24;26.00;99.90
18779;DHT22;9518;51.720;14.384;2022-09-03T11:47:00;26.60;99.90
18779;DHT22;9518;51.720;14.384;2022-09-03T11:49:29;26.80;99.90
18779;DHT22;9518;51.720;14.384;2022-09-03T11:51:59;26.60;99.90
18779;DHT22;9518;51.720;14.384;2022-09-03T11:54:30;27.10;99.90
18779;DHT22;9518;51.720;14.384;2022-09-03T11:57:12;27.40;99.90
18779;DHT22;9518;51.720;14.384;2022-09-03T11:59:41;27.10;99.90
18779;DHT22;9518;51.720;14.384;2022-09-03T12:02:19;27.50;99.90
18779;DHT22;9518;51.720;14.384;2022-09-03T12:05:02;27.40;99.90
18779;DHT22;9518;51.720;14.384;2022-09-03T12:07:49;26.90;99.90
18779;DHT22;9518;51.720;14.384;2022-09-03T12:10:31;27.00;99.90
18779;DHT22;9518;51.720;14.384;2022-09-03T12:13:15;26.70;99.90
18779;DHT22;9518;51.720;14.384;2022-09-03T12:16:05;26.00;99.90
18779;DHT22;9518;51.720;14.384;2022-09-03T12:18:39;25.60;99.90
18779;DHT22;9518;51.720;14.384;2022-09-03T12:21:08;25.30;99.90
18779;DHT22;9518;51.720;14.384;2022-09-03T12:23:40;25.70;99.90
18779;DHT22;9518;51.720;14.384;2022-09-03T12:26:11;26.90;99.90
18779;DHT22;9518;51.720;14.384;2022-09-03T12:28:42;27.40;99.90
18779;DHT22;9518;51.720;14.384;2022-09-03T12:31:14;27.00;99.90
18779;DHT22;9518;51.720;14.384;2022-09-03T12:33:49;26.30;99.90
18779;DHT22;9518;51.720;14.384;2022-09-03T12:36:19;26.00;99.90
18779;DHT22;9518;51.720;14.384;2022-09-03T12:38:46;26.40;99.90
18779;DHT22;9518;51.720;14.384;2022-09-03T12:41:24;26.80;99.90
18779;DHT22;9518;51.720;14.384;2022-09-03T12:43:55;26.70;99.90
18779;DHT22;9518;51.720;14.384;2022-09-03T12:46:24;27.00;99.90
18779;DHT22;9518;51.720;14.384;2022-09-03T12:48:55;27.80;99.90
18779;DHT22;9518;51.720;14.384;2022-09-03T12:51:30;28.60;99.90
18779;DHT22;9518;51.720;14.384;2022-09-03T12:53:58;28.00;99.90
18779;DHT22;9518;51.720;14.384;2022-09-03T12:56:26;27.30;99.90
18779;DHT22;9518;51.720;14.384;2022-09-03T12:58:59;26.90;99.90
18779;DHT22;9518;51.720;14.384;2022-09-03T13:01:30;26.70;99.90
18779;DHT22;9518;51.720;14.384;2022-09-03T13:04:02;26.70;99.90
18779;DHT22;9518;51.720;14.384;2022-09-03T13:06:47;27.80;99.90
18779;DHT22;9518;51.720;14.384;2022-09-03T13:09:19;29.00;99.90
18779;DHT22;9518;51.720;14.384;2022-09-03T13:11:46;29.40;99.90
18779;DHT22;9518;51.720;14.384;2022-09-03T13:14:17;30.20;99.90
18779;DHT22;9518;51.720;14.384;2022-09-03T13:17:20;30.10;99.90
18779;DHT22;9518;51.720;14.384;2022-09-03T13:20:15;30.10;99.90
18779;DHT22;9518;51.720;14.384;2022-09-03T13:22:58;30.60;99.90
18779;DHT22;9518;51.720;14.384;2022-09-03T13:25:32;29.90;99.90
18779;DHT22;9518;51.720;14.384;2022-09-03T13:28:09;30.00;99.90
18779;DHT22;9518;51.720;14.384;2022-09-03T13:30:51;29.40;99.90
18779;DHT22;9518;51.720;14.384;2022-09-03T13:33:24;30.30;99.90
18779;DHT22;9518;51.720;14.384;2022-09-03T13:35:58;30.60;99.90
18779;DHT22;9518;51.720;14.384;2022-09-03T13:38:31;30.60;99.90
18779;DHT22;9518;51.720;14.384;2022-09-03T13:41:01;31.20;99.90
18779;DHT22;9518;51.720;14.384;2022-09-03T13:43:39;31.40;99.90
18779;DHT22;9518;51.720;14.384;2022-09-03T13:46:12;30.90;99.90
18779;DHT22;9518;51.720;14.384;2022-09-03T13:48:43;30.20;99.90
18779;DHT22;9518;51.720;14.384;2022-09-03T13:51:30;29.00;99.90
18779;DHT22;9518;51.720;14.384;2022-09-03T13:54:10;27.40;99.90
18779;DHT22;9518;51.720;14.384;2022-09-03T13:56:52;26.10;99.90
18779;DHT22;9518;51.720;14.384;2022-09-03T13:59:29;25.60;99.90
18779;DHT22;9518;51.720;14.384;2022-09-03T14:02:14;26.40;99.90
18779;DHT22;9518;51.720;14.384;2022-09-03T14:04:50;27.30;99.90
18779;DHT22;9518;51.720;14.384;2022-09-03T14:07:26;27.30;99.90
18779;DHT22;9518;51.720;14.384;2022-09-03T14:10:00;26.90;99.90
18779;DHT22;9518;51.720;14.384;2022-09-03T14:12:37;26.40;99.90
18779;DHT22;9518;51.720;14.384;2022-09-03T14:15:14;25.80;99.90
18779;DHT22;9518;51.720;14.384;2022-09-03T14:17:48;25.50;99.90
18779;DHT22;9518;51.720;14.384;2022-09-03T14:20:21;25.40;99.90
18779;DHT22;9518;51.720;14.384;2022-09-03T14:22:52;27.40;99.90
18779;DHT22;9518;51.720;14.384;2022-09-03T14:25:24;29.30;99.90
18779;DHT22;9518;51.720;14.384;2022-09-03T14:27:52;30.30;99.90
18779;DHT22;9518;51.720;14.384;2022-09-03T14:30:30;30.80;99.90
18779;DHT22;9518;51.720;14.384;2022-09-03T14:33:09;30.90;99.90
18779;DHT22;9518;51.720;14.384;2022-09-03T14:36:01;30.80;99.90
18779;DHT22;9518;51.720;14.384;2022-09-03T14:47:29;31.40;99.90
18779;DHT22;9518;51.720;14.384;2022-09-03T14:50:10;31.50;99.90
18779;DHT22;9518;51.720;14.384;2022-09-03T14:56:03;31.20;99.90
18779;DHT22;9518;51.720;14.384;2022-09-03T14:58:46;30.70;99.90
18779;DHT22;9518;51.720;14.384;2022-09-03T15:01:21;31.00;99.90
18779;DHT22;9518;51.720;14.384;2022-09-03T15:06:56;31.00;99.90
18779;DHT22;9518;51.720;14.384;2022-09-03T15:09:34;31.40;99.90
18779;DHT22;9518;51.720;14.384;2022-09-03T15:12:09;30.80;99.90
18779;DHT22;9518;51.720;14.384;2022-09-03T15:14:41;29.20;99.90
18779;DHT22;9518;51.720;14.384;2022-09-03T15:17:46;27.40;99.90
18779;DHT22;9518;51.720;14.384;2022-09-03T15:20:21;26.20;99.90
18779;DHT22;9518;51.720;14.384;2022-09-03T15:23:08;25.20;99.90
18779;DHT22;9518;51.720;14.384;2022-09-03T15:25:49;24.70;99.90
18779;DHT22;9518;51.720;14.384;2022-09-03T15:28:28;24.60;99.90
18779;DHT22;9518;51.720;14.384;2022-09-03T15:31:01;24.90;99.90
18779;DHT22;9518;51.720;14.384;2022-09-03T15:33:32;24.80;99.90
18779;DHT22;9518;51.720;14.384;2022-09-03T15:36:08;24.30;99.90
18779;DHT22;9518;51.720;14.384;2022-09-03T15:38:47;24.00;99.90
18779;DHT22;9518;51.720;14.384;2022-09-03T15:41:29;23.90;99.90
18779;DHT22;9518;51.720;14.384;2022-09-03T15:43:59;24.10;99.90
18779;DHT22;9518;51.720;14.384;2022-09-03T15:46:48;24.10;99.90
18779;DHT22;9518;51.720;14.384;2022-09-03T15:49:31;24.00;99.90
18779;DHT22;9518;51.720;14.384;2022-09-03T15:52:08;24.00;99.90
18779;DHT22;9518;51.720;14.384;2022-09-03T15:54:42;24.70;99.90
18779;DHT22;9518;51.720;14.384;2022-09-03T15:57:16;24.70;99.90
18779;DHT22;9518;51.720;14.384;2022-09-03T15:59:50;24.00;99.90
18779;DHT22;9518;51.720;14.384;2022-09-03T16:02:25;23.50;99.90
18779;DHT22;9518;51.720;14.384;2022-09-03T16:05:02;23.40;99.90
18779;DHT22;9518;51.720;14.384;2022-09-03T16:07:47;23.10;99.90
18779;DHT22;9518;51.720;14.384;2022-09-03T16:10:18;22.70;99.90
18779;DHT22;9518;51.720;14.384;2022-09-03T16:12:52;22.60;99.90
18779;DHT22;9518;51.720;14.384;2022-09-03T16:15:25;22.50;99.90
18779;DHT22;9518;51.720;14.384;2022-09-03T16:17:55;22.40;99.90
18779;DHT22;9518;51.720;14.384;2022-09-03T16:20:29;22.20;99.90
18779;DHT22;9518;51.720;14.384;2022-09-03T16:23:03;22.10;99.90
18779;DHT22;9518;51.720;14.384;2022-09-03T16:25:34;22.10;99.90
18779;DHT22;9518;51.720;14.384;2022-09-03T16:28:09;22.10;99.90
18779;DHT22;9518;51.720;14.384;2022-09-03T16:30:50;22.00;99.90
18779;DHT22;9518;51.720;14.384;2022-09-03T16:33:24;22.00;99.90
18779;DHT22;9518;51.720;14.384;2022-09-03T16:35:59;21.80;99.90
18779;DHT22;9518;51.720;14.384;2022-09-03T16:38:37;21.70;99.90